sensor_id;sensor_type;location;lat;lon;timestamp;temperature;humidity
21445;DHT22;10883;51.946;20.140;2023-05-10T00:02:13;7.60;99.90
21445;DHT22;10883;51.946;20.140;2023-05-10T00:04:39;7.50;99.90
21445;DHT22;10883;51.946;20.140;2023-05-10T00:07:05;7.40;99.90
21445;DHT22;10883;51.946;20.140;2023-05-10T00:09:31;7.50;99.90
21445;DHT22;10883;51.946;20.140;2023-05-10T00:11:56;7.40;99.90
21445;DHT22;10883;51.946;20.140;2023-05-10T00:14:23;7.40;99.90
21445;DHT22;10883;51.946;20.140;2023-05-10T00:16:49;7.30;99.90
21445;DHT22;10883;51.946;20.140;2023-05-10T00:19:15;7.30;99.90
21445;DHT22;10883;51.946;20.140;2023-05-10T00:21:41;7.20;99.90
21445;DHT22;10883;51.946;20.140;2023-05-10T00:24:07;7.20;99.90
21445;DHT22;10883;51.946;20.140;2023-05-10T00:26:32;7.20;99.90
21445;DHT22;10883;51.946;20.140;2023-05-10T00:28:58;7.10;99.90
21445;DHT22;10883;51.946;20.140;2023-05-10T00:31:24;7.00;99.90
21445;DHT22;10883;51.946;20.140;2023-05-10T00:33:50;7.00;99.90
21445;DHT22;10883;51.946;20.140;2023-05-10T00:36:15;6.90;99.90
21445;DHT22;10883;51.946;20.140;2023-05-10T00:38:41;6.80;99.90
21445;DHT22;10883;51.946;20.140;2023-05-10T00:41:07;6.80;99.90
21445;DHT22;10883;51.946;20.140;2023-05-10T00:43:33;6.80;99.90
21445;DHT22;10883;51.946;20.140;2023-05-10T00:45:59;6.60;99.90
21445;DHT22;10883;51.946;20.140;2023-05-10T00:48:25;6.50;99.90
21445;DHT22;10883;51.946;20.140;2023-05-10T00:50:51;6.60;99.90
21445;DHT22;10883;51.946;20.140;2023-05-10T00:53:16;6.50;99.90
21445;DHT22;10883;51.946;20.140;2023-05-10T00:55:43;6.40;99.90
21445;DHT22;10883;51.946;20.140;2023-05-10T00:58:09;6.40;99.90
21445;DHT22;10883;51.946;20.140;2023-05-10T01:00:35;6.30;99.90
21445;DHT22;10883;51.946;20.140;2023-05-10T01:03:02;6.30;99.90
21445;DHT22;10883;51.946;20.140;2023-05-10T01:05:28;6.20;99.90
21445;DHT22;10883;51.946;20.140;2023-05-10T01:07:56;6.20;99.90
21445;DHT22;10883;51.946;20.140;2023-05-10T01:10:22;6.20;99.90
21445;DHT22;10883;51.946;20.140;2023-05-10T01:12:48;6.10;99.90
21445;DHT22;10883;51.946;20.140;2023-05-10T01:15:14;6.00;99.90
21445;DHT22;10883;51.946;20.140;2023-05-10T01:17:44;6.00;99.90
21445;DHT22;10883;51.946;20.140;2023-05-10T01:20:11;5.90;99.90
21445;DHT22;10883;51.946;20.140;2023-05-10T01:33:56;5.70;99.90
21445;DHT22;10883;51.946;20.140;2023-05-10T01:36:59;5.70;99.90
21445;DHT22;10883;51.946;20.140;2023-05-10T01:39:36;5.70;99.90
21445;DHT22;10883;51.946;20.140;2023-05-10T01:42:11;5.70;99.90
21445;DHT22;10883;51.946;20.140;2023-05-10T01:44:56;5.70;99.90
21445;DHT22;10883;51.946;20.140;2023-05-10T01:47:42;5.70;99.90
21445;DHT22;10883;51.946;20.140;2023-05-10T01:50:36;5.60;99.90
21445;DHT22;10883;51.946;20.140;2023-05-10T01:53:02;5.60;99.90
21445;DHT22;10883;51.946;20.140;2023-05-10T01:55:32;5.60;99.90
21445;DHT22;10883;51.946;20.140;2023-05-10T01:58:06;5.60;99.90
21445;DHT22;10883;51.946;20.140;2023-05-10T02:00:34;5.60;99.90
21445;DHT22;10883;51.946;20.140;2023-05-10T02:03:04;5.60;99.90
21445;DHT22;10883;51.946;20.140;2023-05-10T02:05:32;5.60;99.90
21445;DHT22;10883;51.946;20.140;2023-05-10T02:07:59;5.50;99.90
21445;DHT22;10883;51.946;20.140;2023-05-10T02:10:28;5.50;99.90
21445;DHT22;10883;51.946;20.140;2023-05-10T02:12:55;5.60;99.90
21445;DHT22;10883;51.946;20.140;2023-05-10T02:15:24;5.60;99.90
21445;DHT22;10883;51.946;20.140;2023-05-10T02:17:54;5.40;99.90
21445;DHT22;10883;51.946;20.140;2023-05-10T02:20:20;5.40;99.90
21445;DHT22;10883;51.946;20.140;2023-05-10T02:22:49;5.50;99.90
21445;DHT22;10883;51.946;20.140;2023-05-10T02:25:18;5.50;99.90
21445;DHT22;10883;51.946;20.140;2023-05-10T02:27:44;5.60;99.90
21445;DHT22;10883;51.946;20.140;2023-05-10T02:30:12;5.50;99.90
21445;DHT22;10883;51.946;20.140;2023-05-10T02:32:39;5.50;99.90
21445;DHT22;10883;51.946;20.140;2023-05-10T02:35:05;5.40;99.90
21445;DHT22;10883;51.946;20.140;2023-05-10T02:37:33;5.50;99.90
21445;DHT22;10883;51.946;20.140;2023-05-10T02:40:00;5.50;99.90
21445;DHT22;10883;51.946;20.140;2023-05-10T02:42:29;5.60;99.90
21445;DHT22;10883;51.946;20.140;2023-05-10T02:45:01;5.60;99.90
21445;DHT22;10883;51.946;20.140;2023-05-10T02:47:30;5.60;99.90
21445;DHT22;10883;51.946;20.140;2023-05-10T02:49:56;5.50;99.90
21445;DHT22;10883;51.946;20.140;2023-05-10T02:52:28;5.40;99.90
21445;DHT22;10883;51.946;20.140;2023-05-10T02:54:56;5.60;99.90
21445;DHT22;10883;51.946;20.140;2023-05-10T02:57:28;5.50;99.90
21445;DHT22;10883;51.946;20.140;2023-05-10T02:59:54;5.50;99.90
21445;DHT22;10883;51.946;20.140;2023-05-10T03:02:20;5.60;99.90
21445;DHT22;10883;51.946;20.140;2023-05-10T03:04:46;5.50;99.90
21445;DHT22;10883;51.946;20.140;2023-05-10T03:07:13;5.50;99.90
21445;DHT22;10883;51.946;20.140;2023-05-10T03:09:39;5.40;99.90
21445;DHT22;10883;51.946;20.140;2023-05-10T03:15:11;5.50;99.90
21445;DHT22;10883;51.946;20.140;2023-05-10T03:17:56;5.40;99.90
21445;DHT22;10883;51.946;20.140;2023-05-10T03:20:35;5.50;99.90
21445;DHT22;10883;51.946;20.140;2023-05-10T03:25:43;5.50;99.90
21445;DHT22;10883;51.946;20.140;2023-05-10T03:28:09;5.60;99.90
21445;DHT22;10883;51.946;20.140;2023-05-10T03:30:35;5.50;99.90
21445;DHT22;10883;51.946;20.140;2023-05-10T03:33:05;5.50;99.90
21445;DHT22;10883;51.946;20.140;2023-05-10T03:35:34;5.70;99.90
21445;DHT22;10883;51.946;20.140;2023-05-10T03:38:00;5.70;99.90
21445;DHT22;10883;51.946;20.140;2023-05-10T03:40:27;5.70;99.90
21445;DHT22;10883;51.946;20.140;2023-05-10T03:42:55;5.70;99.90
21445;DHT22;10883;51.946;20.140;2023-05-10T03:45:20;5.70;99.90
21445;DHT22;10883;51.946;20.140;2023-05-10T03:47:46;5.80;99.90
21445;DHT22;10883;51.946;20.140;2023-05-10T03:50:12;5.80;99.90
21445;DHT22;10883;51.946;20.140;2023-05-10T03:52:38;5.80;99.90
21445;DHT22;10883;51.946;20.140;2023-05-10T03:55:07;5.90;99.90
21445;DHT22;10883;51.946;20.140;2023-05-10T03:57:33;6.00;99.90
21445;DHT22;10883;51.946;20.140;2023-05-10T03:59:59;6.10;99.90
21445;DHT22;10883;51.946;20.140;2023-05-10T04:02:25;6.20;99.90
21445;DHT22;10883;51.946;20.140;2023-05-10T04:04:51;6.20;99.90
21445;DHT22;10883;51.946;20.140;2023-05-10T04:07:17;6.30;99.90
21445;DHT22;10883;51.946;20.140;2023-05-10T04:09:43;6.30;99.90
21445;DHT22;10883;51.946;20.140;2023-05-10T04:12:09;6.60;99.90
21445;DHT22;10883;51.946;20.140;2023-05-10T04:14:35;6.70;99.90
21445;DHT22;10883;51.946;20.140;2023-05-10T04:17:01;6.80;99.90
21445;DHT22;10883;51.946;20.140;2023-05-10T04:19:30;6.80;99.90
21445;DHT22;10883;51.946;20.140;2023-05-10T04:21:56;7.00;99.90
21445;DHT22;10883;51.946;20.140;2023-05-10T04:24:21;7.00;99.90
21445;DHT22;10883;51.946;20.140;2023-05-10T04:26:47;7.10;99.90
21445;DHT22;10883;51.946;20.140;2023-05-10T04:29:13;7.20;99.90
21445;DHT22;10883;51.946;20.140;2023-05-10T04:31:39;7.40;99.90
21445;DHT22;10883;51.946;20.140;2023-05-10T04:34:08;7.50;99.90
21445;DHT22;10883;51.946;20.140;2023-05-10T04:36:33;7.60;99.90
21445;DHT22;10883;51.946;20.140;2023-05-10T04:39:01;7.70;99.90
21445;DHT22;10883;51.946;20.140;2023-05-10T04:41:28;7.80;99.90
21445;DHT22;10883;51.946;20.140;2023-05-10T04:43:54;7.90;99.90
21445;DHT22;10883;51.946;20.140;2023-05-10T04:46:20;7.90;99.90
21445;DHT22;10883;51.946;20.140;2023-05-10T04:48:46;8.00;99.90
21445;DHT22;10883;51.946;20.140;2023-05-10T04:51:12;8.10;99.90
21445;DHT22;10883;51.946;20.140;2023-05-10T04:53:38;8.30;99.90
21445;DHT22;10883;51.946;20.140;2023-05-10T04:56:04;8.40;99.90
21445;DHT22;10883;51.946;20.140;2023-05-10T04:58:30;8.60;99.90
21445;DHT22;10883;51.946;20.140;2023-05-10T05:00:55;8.60;99.90
21445;DHT22;10883;51.946;20.140;2023-05-10T05:03:21;8.60;99.90
21445;DHT22;10883;51.946;20.140;2023-05-10T05:05:47;8.80;99.90
21445;DHT22;10883;51.946;20.140;2023-05-10T05:08:13;9.00;99.90
21445;DHT22;10883;51.946;20.140;2023-05-10T05:10:39;9.10;99.90
21445;DHT22;10883;51.946;20.140;2023-05-10T05:13:05;9.30;99.90
21445;DHT22;10883;51.946;20.140;2023-05-10T05:15:31;9.40;99.90
21445;DHT22;10883;51.946;20.140;2023-05-10T05:17:56;9.40;99.90
21445;DHT22;10883;51.946;20.140;2023-05-10T05:20:22;9.50;99.90
21445;DHT22;10883;51.946;20.140;2023-05-10T05:22:48;9.70;99.90
21445;DHT22;10883;51.946;20.140;2023-05-10T05:25:15;9.80;99.90
21445;DHT22;10883;51.946;20.140;2023-05-10T05:27:41;10.10;99.90
21445;DHT22;10883;51.946;20.140;2023-05-10T05:30:07;10.20;99.90
21445;DHT22;10883;51.946;20.140;2023-05-10T05:32:33;10.60;99.90
21445;DHT22;10883;51.946;20.140;2023-05-10T05:34:59;10.50;99.90
21445;DHT22;10883;51.946;20.140;2023-05-10T05:37:25;10.60;99.90
21445;DHT22;10883;51.946;20.140;2023-05-10T05:39:51;10.80;99.90
21445;DHT22;10883;51.946;20.140;2023-05-10T05:42:17;11.00;99.90
21445;DHT22;10883;51.946;20.140;2023-05-10T05:44:44;11.10;99.90
21445;DHT22;10883;51.946;20.140;2023-05-10T05:47:10;11.20;99.90
21445;DHT22;10883;51.946;20.140;2023-05-10T05:49:36;11.30;99.90
21445;DHT22;10883;51.946;20.140;2023-05-10T05:52:02;11.40;99.90
21445;DHT22;10883;51.946;20.140;2023-05-10T05:54:29;11.50;99.90
21445;DHT22;10883;51.946;20.140;2023-05-10T05:56:56;11.70;99.90
21445;DHT22;10883;51.946;20.140;2023-05-10T05:59:22;11.80;99.90
21445;DHT22;10883;51.946;20.140;2023-05-10T06:01:48;11.90;99.90
21445;DHT22;10883;51.946;20.140;2023-05-10T06:04:14;12.00;99.90
21445;DHT22;10883;51.946;20.140;2023-05-10T06:06:40;12.10;99.90
21445;DHT22;10883;51.946;20.140;2023-05-10T06:09:06;12.20;99.90
21445;DHT22;10883;51.946;20.140;2023-05-10T06:11:32;12.30;99.90
21445;DHT22;10883;51.946;20.140;2023-05-10T06:13:58;12.40;99.40
21445;DHT22;10883;51.946;20.140;2023-05-10T06:16:24;12.40;99.60
21445;DHT22;10883;51.946;20.140;2023-05-10T06:18:50;12.50;98.90
21445;DHT22;10883;51.946;20.140;2023-05-10T06:21:16;12.60;98.40
21445;DHT22;10883;51.946;20.140;2023-05-10T06:23:42;12.70;98.00
21445;DHT22;10883;51.946;20.140;2023-05-10T06:26:09;12.90;98.30
21445;DHT22;10883;51.946;20.140;2023-05-10T06:28:35;12.80;96.70
21445;DHT22;10883;51.946;20.140;2023-05-10T06:31:03;13.00;97.90
21445;DHT22;10883;51.946;20.140;2023-05-10T06:33:29;13.10;97.70
21445;DHT22;10883;51.946;20.140;2023-05-10T06:35:55;13.30;97.40
21445;DHT22;10883;51.946;20.140;2023-05-10T06:38:21;13.30;96.40
21445;DHT22;10883;51.946;20.140;2023-05-10T06:40:47;13.30;96.60
21445;DHT22;10883;51.946;20.140;2023-05-10T06:43:13;13.40;96.30
21445;DHT22;10883;51.946;20.140;2023-05-10T06:45:39;13.40;95.60
21445;DHT22;10883;51.946;20.140;2023-05-10T06:48:05;13.40;95.50
21445;DHT22;10883;51.946;20.140;2023-05-10T06:50:31;13.40;95.50
21445;DHT22;10883;51.946;20.140;2023-05-10T06:52:57;13.50;95.40
21445;DHT22;10883;51.946;20.140;2023-05-10T06:55:22;13.60;95.80
21445;DHT22;10883;51.946;20.140;2023-05-10T06:57:49;13.90;95.40
21445;DHT22;10883;51.946;20.140;2023-05-10T07:00:16;14.10;95.90
21445;DHT22;10883;51.946;20.140;2023-05-10T07:02:42;14.10;93.90
21445;DHT22;10883;51.946;20.140;2023-05-10T07:05:08;14.20;94.10
21445;DHT22;10883;51.946;20.140;2023-05-10T07:07:34;14.30;93.60
21445;DHT22;10883;51.946;20.140;2023-05-10T07:10:00;14.40;93.70
21445;DHT22;10883;51.946;20.140;2023-05-10T07:12:26;14.50;93.90
21445;DHT22;10883;51.946;20.140;2023-05-10T07:14:52;14.70;92.70
21445;DHT22;10883;51.946;20.140;2023-05-10T07:17:17;14.70;92.40
21445;DHT22;10883;51.946;20.140;2023-05-10T07:19:43;14.70;92.30
21445;DHT22;10883;51.946;20.140;2023-05-10T07:22:09;14.80;92.90
21445;DHT22;10883;51.946;20.140;2023-05-10T07:24:35;15.00;93.20
21445;DHT22;10883;51.946;20.140;2023-05-10T07:27:01;15.10;92.00
21445;DHT22;10883;51.946;20.140;2023-05-10T07:29:26;15.20;91.00
21445;DHT22;10883;51.946;20.140;2023-05-10T07:31:52;15.10;90.60
21445;DHT22;10883;51.946;20.140;2023-05-10T07:34:18;15.00;91.20
21445;DHT22;10883;51.946;20.140;2023-05-10T07:36:44;15.10;91.40
21445;DHT22;10883;51.946;20.140;2023-05-10T07:39:10;15.30;90.60
21445;DHT22;10883;51.946;20.140;2023-05-10T07:41:36;15.40;90.60
21445;DHT22;10883;51.946;20.140;2023-05-10T07:44:03;15.60;90.90
21445;DHT22;10883;51.946;20.140;2023-05-10T07:46:29;15.50;90.80
21445;DHT22;10883;51.946;20.140;2023-05-10T07:48:55;15.70;89.70
21445;DHT22;10883;51.946;20.140;2023-05-10T07:51:21;15.60;89.90
21445;DHT22;10883;51.946;20.140;2023-05-10T07:53:47;15.60;88.40
21445;DHT22;10883;51.946;20.140;2023-05-10T07:58:47;15.70;87.20
21445;DHT22;10883;51.946;20.140;2023-05-10T08:01:13;15.70;87.60
21445;DHT22;10883;51.946;20.140;2023-05-10T08:03:39;15.70;87.60
21445;DHT22;10883;51.946;20.140;2023-05-10T08:06:05;15.80;86.10
21445;DHT22;10883;51.946;20.140;2023-05-10T08:08:31;15.90;86.30
21445;DHT22;10883;51.946;20.140;2023-05-10T08:10:57;15.80;86.30
21445;DHT22;10883;51.946;20.140;2023-05-10T08:13:22;15.80;87.40
21445;DHT22;10883;51.946;20.140;2023-05-10T08:15:48;16.00;86.20
21445;DHT22;10883;51.946;20.140;2023-05-10T08:18:14;16.10;85.00
21445;DHT22;10883;51.946;20.140;2023-05-10T08:20:40;16.20;84.70
21445;DHT22;10883;51.946;20.140;2023-05-10T08:23:05;16.20;84.40
21445;DHT22;10883;51.946;20.140;2023-05-10T08:25:31;16.20;83.70
21445;DHT22;10883;51.946;20.140;2023-05-10T08:27:57;16.30;84.20
21445;DHT22;10883;51.946;20.140;2023-05-10T08:30:23;16.40;84.90
21445;DHT22;10883;51.946;20.140;2023-05-10T08:32:49;16.60;87.60
21445;DHT22;10883;51.946;20.140;2023-05-10T08:35:15;16.90;84.70
21445;DHT22;10883;51.946;20.140;2023-05-10T08:37:41;16.70;85.10
21445;DHT22;10883;51.946;20.140;2023-05-10T08:40:08;16.70;84.90
21445;DHT22;10883;51.946;20.140;2023-05-10T08:42:40;16.70;84.40
21445;DHT22;10883;51.946;20.140;2023-05-10T08:45:07;16.80;88.60
21445;DHT22;10883;51.946;20.140;2023-05-10T08:47:36;17.20;88.00
21445;DHT22;10883;51.946;20.140;2023-05-10T08:50:03;17.50;84.30
21445;DHT22;10883;51.946;20.140;2023-05-10T08:52:30;17.20;83.80
21445;DHT22;10883;51.946;20.140;2023-05-10T08:54:58;17.20;81.30
21445;DHT22;10883;51.946;20.140;2023-05-10T08:57:24;17.30;81.30
21445;DHT22;10883;51.946;20.140;2023-05-10T08:59:50;17.30;82.80
21445;DHT22;10883;51.946;20.140;2023-05-10T09:02:17;17.60;82.10
21445;DHT22;10883;51.946;20.140;2023-05-10T09:04:43;17.60;80.50
21445;DHT22;10883;51.946;20.140;2023-05-10T09:07:10;17.40;80.60
21445;DHT22;10883;51.946;20.140;2023-05-10T09:09:36;17.40;80.20
21445;DHT22;10883;51.946;20.140;2023-05-10T09:12:03;17.60;80.90
21445;DHT22;10883;51.946;20.140;2023-05-10T09:14:29;17.70;80.40
21445;DHT22;10883;51.946;20.140;2023-05-10T09:16:56;17.80;80.40
21445;DHT22;10883;51.946;20.140;2023-05-10T09:19:22;17.80;79.10
21445;DHT22;10883;51.946;20.140;2023-05-10T09:21:49;17.90;79.50
21445;DHT22;10883;51.946;20.140;2023-05-10T09:24:15;17.70;79.30
21445;DHT22;10883;51.946;20.140;2023-05-10T09:26:47;17.80;80.20
21445;DHT22;10883;51.946;20.140;2023-05-10T09:29:14;17.70;80.70
21445;DHT22;10883;51.946;20.140;2023-05-10T09:31:47;17.80;79.10
21445;DHT22;10883;51.946;20.140;2023-05-10T09:34:19;17.80;78.60
21445;DHT22;10883;51.946;20.140;2023-05-10T09:36:59;17.90;78.60
21445;DHT22;10883;51.946;20.140;2023-05-10T09:39:37;17.80;77.80
21445;DHT22;10883;51.946;20.140;2023-05-10T09:42:05;17.90;78.20
21445;DHT22;10883;51.946;20.140;2023-05-10T09:44:33;17.50;78.10
21445;DHT22;10883;51.946;20.140;2023-05-10T09:47:00;17.70;79.30
21445;DHT22;10883;51.946;20.140;2023-05-10T09:49:26;17.70;78.90
21445;DHT22;10883;51.946;20.140;2023-05-10T09:52:04;17.70;79.50
21445;DHT22;10883;51.946;20.140;2023-05-10T09:54:30;17.70;79.20
21445;DHT22;10883;51.946;20.140;2023-05-10T09:56:56;17.70;77.10
21445;DHT22;10883;51.946;20.140;2023-05-10T09:59:25;17.80;79.50
21445;DHT22;10883;51.946;20.140;2023-05-10T10:01:55;18.10;79.70
21445;DHT22;10883;51.946;20.140;2023-05-10T10:04:21;18.20;78.30
21445;DHT22;10883;51.946;20.140;2023-05-10T10:07:01;18.70;78.30
21445;DHT22;10883;51.946;20.140;2023-05-10T10:09:28;18.60;78.70
21445;DHT22;10883;51.946;20.140;2023-05-10T10:11:54;18.70;78.00
21445;DHT22;10883;51.946;20.140;2023-05-10T10:14:21;19.00;76.30
21445;DHT22;10883;51.946;20.140;2023-05-10T10:16:47;19.30;75.80
21445;DHT22;10883;51.946;20.140;2023-05-10T10:19:13;19.40;75.90
21445;DHT22;10883;51.946;20.140;2023-05-10T10:21:40;19.00;75.50
21445;DHT22;10883;51.946;20.140;2023-05-10T10:24:07;19.00;75.90
21445;DHT22;10883;51.946;20.140;2023-05-10T10:26:35;19.50;77.90
21445;DHT22;10883;51.946;20.140;2023-05-10T10:29:39;20.90;74.30
21445;DHT22;10883;51.946;20.140;2023-05-10T10:35:15;25.30;68.50
21445;DHT22;10883;51.946;20.140;2023-05-10T10:37:46;28.00;62.90
21445;DHT22;10883;51.946;20.140;2023-05-10T10:40:31;27.30;57.60
21445;DHT22;10883;51.946;20.140;2023-05-10T10:42:58;28.30;58.20
21445;DHT22;10883;51.946;20.140;2023-05-10T10:45:25;30.20;57.20
21445;DHT22;10883;51.946;20.140;2023-05-10T10:48:20;31.30;54.00
21445;DHT22;10883;51.946;20.140;2023-05-10T10:50:47;29.00;52.70
21445;DHT22;10883;51.946;20.140;2023-05-10T10:53:12;28.50;52.30
21445;DHT22;10883;51.946;20.140;2023-05-10T10:55:48;29.00;52.40
21445;DHT22;10883;51.946;20.140;2023-05-10T10:58:33;28.60;52.10
21445;DHT22;10883;51.946;20.140;2023-05-10T11:01:14;29.30;52.80
21445;DHT22;10883;51.946;20.140;2023-05-10T11:03:41;28.50;53.40
21445;DHT22;10883;51.946;20.140;2023-05-10T11:06:29;29.50;53.80
21445;DHT22;10883;51.946;20.140;2023-05-10T11:08:55;30.60;52.60
21445;DHT22;10883;51.946;20.140;2023-05-10T11:11:20;31.40;52.40
21445;DHT22;10883;51.946;20.140;2023-05-10T11:13:48;33.20;51.10
21445;DHT22;10883;51.946;20.140;2023-05-10T11:16:23;33.20;49.20
21445;DHT22;10883;51.946;20.140;2023-05-10T11:21:18;34.30;49.00
21445;DHT22;10883;51.946;20.140;2023-05-10T11:23:49;32.70;50.00
21445;DHT22;10883;51.946;20.140;2023-05-10T11:26:16;31.70;49.70
21445;DHT22;10883;51.946;20.140;2023-05-10T11:28:48;30.10;50.80
21445;DHT22;10883;51.946;20.140;2023-05-10T11:31:18;30.70;53.50
21445;DHT22;10883;51.946;20.140;2023-05-10T11:33:49;32.00;51.30
21445;DHT22;10883;51.946;20.140;2023-05-10T11:36:17;30.50;50.20
21445;DHT22;10883;51.946;20.140;2023-05-10T11:38:44;30.10;51.10
21445;DHT22;10883;51.946;20.140;2023-05-10T11:41:11;29.50;52.70
21445;DHT22;10883;51.946;20.140;2023-05-10T11:43:39;30.10;51.40
21445;DHT22;10883;51.946;20.140;2023-05-10T11:46:07;29.70;51.70
21445;DHT22;10883;51.946;20.140;2023-05-10T11:48:33;28.30;52.20
21445;DHT22;10883;51.946;20.140;2023-05-10T11:51:01;27.30;53.60
21445;DHT22;10883;51.946;20.140;2023-05-10T11:53:28;27.20;53.20
21445;DHT22;10883;51.946;20.140;2023-05-10T11:55:54;27.00;54.00
21445;DHT22;10883;51.946;20.140;2023-05-10T11:58:20;27.70;54.50
21445;DHT22;10883;51.946;20.140;2023-05-10T12:00:48;28.20;52.10
21445;DHT22;10883;51.946;20.140;2023-05-10T12:03:14;29.20;53.60
21445;DHT22;10883;51.946;20.140;2023-05-10T12:05:40;28.80;52.00
21445;DHT22;10883;51.946;20.140;2023-05-10T12:08:15;28.20;52.70
21445;DHT22;10883;51.946;20.140;2023-05-10T12:10:41;28.90;53.30
21445;DHT22;10883;51.946;20.140;2023-05-10T12:13:14;30.30;51.70
21445;DHT22;10883;51.946;20.140;2023-05-10T12:15:41;30.90;52.20
21445;DHT22;10883;51.946;20.140;2023-05-10T12:18:11;29.00;51.80
21445;DHT22;10883;51.946;20.140;2023-05-10T12:20:37;29.00;50.80
21445;DHT22;10883;51.946;20.140;2023-05-10T12:23:03;28.20;51.90
21445;DHT22;10883;51.946;20.140;2023-05-10T12:25:36;27.70;52.50
21445;DHT22;10883;51.946;20.140;2023-05-10T12:28:11;26.70;54.30
21445;DHT22;10883;51.946;20.140;2023-05-10T12:30:37;25.50;53.90
21445;DHT22;10883;51.946;20.140;2023-05-10T12:33:09;24.10;55.90
21445;DHT22;10883;51.946;20.140;2023-05-10T12:35:51;23.00;56.90
21445;DHT22;10883;51.946;20.140;2023-05-10T12:38:33;22.40;59.50
21445;DHT22;10883;51.946;20.140;2023-05-10T12:41:07;22.20;59.60
21445;DHT22;10883;51.946;20.140;2023-05-10T12:43:33;22.20;62.10
21445;DHT22;10883;51.946;20.140;2023-05-10T12:46:07;22.70;60.90
21445;DHT22;10883;51.946;20.140;2023-05-10T12:48:33;23.60;62.10
21445;DHT22;10883;51.946;20.140;2023-05-10T12:51:00;23.70;58.50
21445;DHT22;10883;51.946;20.140;2023-05-10T12:53:26;23.30;59.70
21445;DHT22;10883;51.946;20.140;2023-05-10T12:55:52;23.20;59.60
21445;DHT22;10883;51.946;20.140;2023-05-10T12:58:18;23.90;57.60
21445;DHT22;10883;51.946;20.140;2023-05-10T13:00:44;24.60;57.20
21445;DHT22;10883;51.946;20.140;2023-05-10T13:03:10;25.60;56.50
21445;DHT22;10883;51.946;20.140;2023-05-10T13:05:36;24.70;56.00
21445;DHT22;10883;51.946;20.140;2023-05-10T13:08:02;25.60;56.50
21445;DHT22;10883;51.946;20.140;2023-05-10T13:10:30;27.00;55.30
21445;DHT22;10883;51.946;20.140;2023-05-10T13:12:56;26.20;54.90
21445;DHT22;10883;51.946;20.140;2023-05-10T13:15:22;26.40;54.20
21445;DHT22;10883;51.946;20.140;2023-05-10T13:17:48;26.90;54.70
21445;DHT22;10883;51.946;20.140;2023-05-10T13:20:14;27.10;53.30
21445;DHT22;10883;51.946;20.140;2023-05-10T13:22:41;27.20;53.90
21445;DHT22;10883;51.946;20.140;2023-05-10T13:25:07;27.90;53.10
21445;DHT22;10883;51.946;20.140;2023-05-10T13:27:33;28.60;52.90
21445;DHT22;10883;51.946;20.140;2023-05-10T13:29:59;28.10;53.30
21445;DHT22;10883;51.946;20.140;2023-05-10T13:32:25;28.00;52.90
21445;DHT22;10883;51.946;20.140;2023-05-10T13:34:52;28.10;52.90
21445;DHT22;10883;51.946;20.140;2023-05-10T13:37:17;27.70;53.70
21445;DHT22;10883;51.946;20.140;2023-05-10T13:39:43;27.90;52.30
21445;DHT22;10883;51.946;20.140;2023-05-10T13:42:09;27.50;52.90
21445;DHT22;10883;51.946;20.140;2023-05-10T13:44:35;28.00;53.80
21445;DHT22;10883;51.946;20.140;2023-05-10T13:47:01;27.80;52.40
21445;DHT22;10883;51.946;20.140;2023-05-10T13:49:27;28.20;52.20
21445;DHT22;10883;51.946;20.140;2023-05-10T13:51:53;28.70;53.10
21445;DHT22;10883;51.946;20.140;2023-05-10T13:54:18;26.90;53.40
21445;DHT22;10883;51.946;20.140;2023-05-10T13:56:45;26.50;52.90
21445;DHT22;10883;51.946;20.140;2023-05-10T13:59:13;25.90;55.60
21445;DHT22;10883;51.946;20.140;2023-05-10T14:01:42;25.80;53.40
21445;DHT22;10883;51.946;20.140;2023-05-10T14:04:09;25.00;55.60
21445;DHT22;10883;51.946;20.140;2023-05-10T14:06:38;25.20;55.60
21445;DHT22;10883;51.946;20.140;2023-05-10T14:09:04;25.20;56.40
21445;DHT22;10883;51.946;20.140;2023-05-10T14:11:30;26.20;55.10
21445;DHT22;10883;51.946;20.140;2023-05-10T14:13:56;26.70;54.30
21445;DHT22;10883;51.946;20.140;2023-05-10T14:16:22;26.00;55.70
21445;DHT22;10883;51.946;20.140;2023-05-10T14:18:47;24.80;56.10
21445;DHT22;10883;51.946;20.140;2023-05-10T14:21:13;23.90;57.80
21445;DHT22;10883;51.946;20.140;2023-05-10T14:23:39;23.40;57.60
21445;DHT22;10883;51.946;20.140;2023-05-10T14:26:05;24.00;57.60
21445;DHT22;10883;51.946;20.140;2023-05-10T14:28:31;24.30;57.00
21445;DHT22;10883;51.946;20.140;2023-05-10T14:30:58;23.90;57.40
21445;DHT22;10883;51.946;20.140;2023-05-10T14:33:24;23.40;57.80
21445;DHT22;10883;51.946;20.140;2023-05-10T14:35:50;23.20;58.60
21445;DHT22;10883;51.946;20.140;2023-05-10T14:38:16;23.60;57.90
21445;DHT22;10883;51.946;20.140;2023-05-10T14:40:42;23.90;58.50
21445;DHT22;10883;51.946;20.140;2023-05-10T14:43:08;23.60;57.60
21445;DHT22;10883;51.946;20.140;2023-05-10T14:45:34;23.60;57.30
21445;DHT22;10883;51.946;20.140;2023-05-10T14:48:00;23.80;58.80
21445;DHT22;10883;51.946;20.140;2023-05-10T14:50:26;24.10;58.80
21445;DHT22;10883;51.946;20.140;2023-05-10T14:52:52;24.60;58.90
21445;DHT22;10883;51.946;20.140;2023-05-10T14:55:18;23.60;59.10
21445;DHT22;10883;51.946;20.140;2023-05-10T14:57:44;23.20;59.10
21445;DHT22;10883;51.946;20.140;2023-05-10T15:00:12;23.30;59.60
21445;DHT22;10883;51.946;20.140;2023-05-10T15:02:40;23.10;59.50
21445;DHT22;10883;51.946;20.140;2023-05-10T15:05:07;22.60;58.90
21445;DHT22;10883;51.946;20.140;2023-05-10T15:07:33;21.80;60.00
21445;DHT22;10883;51.946;20.140;2023-05-10T15:09:58;21.20;61.70
21445;DHT22;10883;51.946;20.140;2023-05-10T15:12:24;21.20;63.50
21445;DHT22;10883;51.946;20.140;2023-05-10T15:14:50;21.30;63.90
21445;DHT22;10883;51.946;20.140;2023-05-10T15:17:15;21.30;63.40
21445;DHT22;10883;51.946;20.140;2023-05-10T15:19:42;21.20;64.30
21445;DHT22;10883;51.946;20.140;2023-05-10T15:22:08;20.50;65.00
21445;DHT22;10883;51.946;20.140;2023-05-10T15:24:34;20.40;65.80
21445;DHT22;10883;51.946;20.140;2023-05-10T15:27:00;20.20;65.40
21445;DHT22;10883;51.946;20.140;2023-05-10T15:29:26;20.10;65.90
21445;DHT22;10883;51.946;20.140;2023-05-10T15:31:52;20.20;67.50
21445;DHT22;10883;51.946;20.140;2023-05-10T15:34:18;20.00;66.00
21445;DHT22;10883;51.946;20.140;2023-05-10T15:36:44;19.90;68.40
21445;DHT22;10883;51.946;20.140;2023-05-10T15:39:11;19.90;67.40
21445;DHT22;10883;51.946;20.140;2023-05-10T15:41:37;20.00;66.60
21445;DHT22;10883;51.946;20.140;2023-05-10T15:44:03;19.80;67.00
21445;DHT22;10883;51.946;20.140;2023-05-10T15:46:29;19.80;66.90
21445;DHT22;10883;51.946;20.140;2023-05-10T15:48:56;19.70;67.60